sensor_id;sensor_type;location;lat;lon;timestamp;P1;durP1;ratioP1;P2;durP2;ratioP2
1366;SDS011;16877;48.810;9.282;2023-11-19T00:02:24;3.63;;;2.50;;
1366;SDS011;16877;48.810;9.282;2023-11-19T00:04:53;2.97;;;1.97;;
1366;SDS011;16877;48.810;9.282;2023-11-19T00:07:19;3.20;;;2.20;;
1366;SDS011;16877;48.810;9.282;2023-11-19T00:09:46;3.03;;;1.90;;
1366;SDS011;16877;48.810;9.282;2023-11-19T00:12:13;2.60;;;1.57;;
1366;SDS011;16877;48.810;9.282;2023-11-19T00:14:39;2.40;;;1.40;;
1366;SDS011;16877;48.810;9.282;2023-11-19T00:17:06;2.30;;;1.37;;
1366;SDS011;16877;48.810;9.282;2023-11-19T00:19:33;2.83;;;1.83;;
1366;SDS011;16877;48.810;9.282;2023-11-19T00:22:01;2.47;;;1.50;;
1366;SDS011;16877;48.810;9.282;2023-11-19T00:24:28;2.90;;;1.70;;
1366;SDS011;16877;48.810;9.282;2023-11-19T00:26:55;2.63;;;1.70;;
1366;SDS011;16877;48.810;9.282;2023-11-19T00:29:22;2.50;;;1.60;;
1366;SDS011;16877;48.810;9.282;2023-11-19T00:31:49;2.63;;;1.70;;
1366;SDS011;16877;48.810;9.282;2023-11-19T00:34:16;3.13;;;1.83;;
1366;SDS011;16877;48.810;9.282;2023-11-19T00:36:46;2.90;;;1.67;;
1366;SDS011;16877;48.810;9.282;2023-11-19T00:39:14;3.77;;;2.20;;
1366;SDS011;16877;48.810;9.282;2023-11-19T00:41:42;2.97;;;1.83;;
1366;SDS011;16877;48.810;9.282;2023-11-19T00:44:11;2.67;;;1.80;;
1366;SDS011;16877;48.810;9.282;2023-11-19T00:46:37;2.60;;;1.83;;
1366;SDS011;16877;48.810;9.282;2023-11-19T00:49:04;2.40;;;1.40;;
1366;SDS011;16877;48.810;9.282;2023-11-19T00:51:31;2.83;;;1.60;;
1366;SDS011;16877;48.810;9.282;2023-11-19T00:53:58;3.17;;;1.70;;
1366;SDS011;16877;48.810;9.282;2023-11-19T00:56:27;2.60;;;1.53;;
1366;SDS011;16877;48.810;9.282;2023-11-19T00:58:54;3.13;;;1.70;;
1366;SDS011;16877;48.810;9.282;2023-11-19T01:01:21;2.47;;;1.50;;
1366;SDS011;16877;48.810;9.282;2023-11-19T01:03:47;2.63;;;1.57;;
1366;SDS011;16877;48.810;9.282;2023-11-19T01:06:14;2.40;;;1.60;;
1366;SDS011;16877;48.810;9.282;2023-11-19T01:08:42;3.50;;;1.50;;
1366;SDS011;16877;48.810;9.282;2023-11-19T01:11:11;2.50;;;1.40;;
1366;SDS011;16877;48.810;9.282;2023-11-19T01:13:47;2.20;;;1.30;;
1366;SDS011;16877;48.810;9.282;2023-11-19T01:16:14;2.10;;;1.40;;
1366;SDS011;16877;48.810;9.282;2023-11-19T01:18:41;2.43;;;1.40;;
1366;SDS011;16877;48.810;9.282;2023-11-19T01:21:08;2.87;;;1.50;;
1366;SDS011;16877;48.810;9.282;2023-11-19T01:23:35;2.40;;;1.20;;
1366;SDS011;16877;48.810;9.282;2023-11-19T01:26:02;2.40;;;1.50;;
1366;SDS011;16877;48.810;9.282;2023-11-19T01:28:30;2.50;;;1.60;;
1366;SDS011;16877;48.810;9.282;2023-11-19T01:30:58;2.93;;;1.80;;
1366;SDS011;16877;48.810;9.282;2023-11-19T01:33:25;2.30;;;1.30;;
1366;SDS011;16877;48.810;9.282;2023-11-19T01:35:52;2.37;;;1.30;;
1366;SDS011;16877;48.810;9.282;2023-11-19T01:38:19;2.10;;;1.20;;
1366;SDS011;16877;48.810;9.282;2023-11-19T01:40:46;2.50;;;1.20;;
1366;SDS011;16877;48.810;9.282;2023-11-19T01:43:22;2.00;;;1.10;;
1366;SDS011;16877;48.810;9.282;2023-11-19T01:45:59;2.57;;;1.30;;
1366;SDS011;16877;48.810;9.282;2023-11-19T01:48:26;2.13;;;1.30;;
1366;SDS011;16877;48.810;9.282;2023-11-19T01:50:53;2.90;;;1.27;;
1366;SDS011;16877;48.810;9.282;2023-11-19T01:53:20;2.10;;;1.10;;
1366;SDS011;16877;48.810;9.282;2023-11-19T01:55:47;2.77;;;1.47;;
1366;SDS011;16877;48.810;9.282;2023-11-19T01:58:14;2.70;;;1.63;;
1366;SDS011;16877;48.810;9.282;2023-11-19T02:00:42;2.60;;;1.60;;
1366;SDS011;16877;48.810;9.282;2023-11-19T02:03:11;2.00;;;1.10;;
1366;SDS011;16877;48.810;9.282;2023-11-19T02:05:38;4.33;;;1.60;;
1366;SDS011;16877;48.810;9.282;2023-11-19T02:08:06;3.33;;;1.50;;
1366;SDS011;16877;48.810;9.282;2023-11-19T02:10:33;2.20;;;1.30;;
1366;SDS011;16877;48.810;9.282;2023-11-19T02:13:00;2.77;;;1.60;;
1366;SDS011;16877;48.810;9.282;2023-11-19T02:15:27;3.37;;;1.70;;
1366;SDS011;16877;48.810;9.282;2023-11-19T02:17:54;2.80;;;1.73;;
1366;SDS011;16877;48.810;9.282;2023-11-19T02:20:22;2.43;;;1.40;;
1366;SDS011;16877;48.810;9.282;2023-11-19T02:22:51;2.83;;;1.37;;
1366;SDS011;16877;48.810;9.282;2023-11-19T02:25:19;2.63;;;1.30;;
1366;SDS011;16877;48.810;9.282;2023-11-19T02:27:52;4.77;;;2.63;;
1366;SDS011;16877;48.810;9.282;2023-11-19T02:30:23;3.13;;;1.70;;
1366;SDS011;16877;48.810;9.282;2023-11-19T02:32:51;2.57;;;1.50;;
1366;SDS011;16877;48.810;9.282;2023-11-19T02:35:18;3.80;;;1.63;;
1366;SDS011;16877;48.810;9.282;2023-11-19T02:37:46;2.47;;;1.27;;
1366;SDS011;16877;48.810;9.282;2023-11-19T02:40:13;2.70;;;1.50;;
1366;SDS011;16877;48.810;9.282;2023-11-19T02:42:40;2.43;;;1.40;;
1366;SDS011;16877;48.810;9.282;2023-11-19T02:45:09;2.17;;;1.10;;
1366;SDS011;16877;48.810;9.282;2023-11-19T02:47:39;2.60;;;1.10;;
1366;SDS011;16877;48.810;9.282;2023-11-19T02:50:06;2.03;;;0.90;;
1366;SDS011;16877;48.810;9.282;2023-11-19T02:52:39;1.97;;;1.00;;
1366;SDS011;16877;48.810;9.282;2023-11-19T02:55:06;1.63;;;0.77;;
1366;SDS011;16877;48.810;9.282;2023-11-19T02:57:37;1.90;;;0.90;;
1366;SDS011;16877;48.810;9.282;2023-11-19T03:00:06;2.20;;;0.97;;
1366;SDS011;16877;48.810;9.282;2023-11-19T03:02:39;1.97;;;0.77;;
1366;SDS011;16877;48.810;9.282;2023-11-19T03:05:10;1.73;;;0.70;;
1366;SDS011;16877;48.810;9.282;2023-11-19T03:07:39;1.80;;;0.70;;
1366;SDS011;16877;48.810;9.282;2023-11-19T03:10:07;1.97;;;0.90;;
1366;SDS011;16877;48.810;9.282;2023-11-19T03:12:37;2.13;;;1.00;;
1366;SDS011;16877;48.810;9.282;2023-11-19T03:15:05;2.17;;;0.90;;
1366;SDS011;16877;48.810;9.282;2023-11-19T03:17:32;2.10;;;1.10;;
1366;SDS011;16877;48.810;9.282;2023-11-19T03:20:00;1.97;;;0.87;;
1366;SDS011;16877;48.810;9.282;2023-11-19T03:22:27;1.80;;;0.87;;
1366;SDS011;16877;48.810;9.282;2023-11-19T03:24:53;1.93;;;0.70;;
1366;SDS011;16877;48.810;9.282;2023-11-19T03:27:20;1.70;;;0.63;;
1366;SDS011;16877;48.810;9.282;2023-11-19T03:29:47;2.07;;;0.77;;
1366;SDS011;16877;48.810;9.282;2023-11-19T03:32:13;2.10;;;0.97;;
1366;SDS011;16877;48.810;9.282;2023-11-19T03:34:40;1.97;;;0.90;;
1366;SDS011;16877;48.810;9.282;2023-11-19T03:37:08;1.80;;;0.70;;
1366;SDS011;16877;48.810;9.282;2023-11-19T03:39:35;1.97;;;0.90;;
1366;SDS011;16877;48.810;9.282;2023-11-19T03:42:02;1.90;;;0.70;;
1366;SDS011;16877;48.810;9.282;2023-11-19T03:44:29;2.27;;;1.00;;
1366;SDS011;16877;48.810;9.282;2023-11-19T03:46:55;2.27;;;0.80;;
1366;SDS011;16877;48.810;9.282;2023-11-19T03:49:22;1.80;;;0.80;;
1366;SDS011;16877;48.810;9.282;2023-11-19T03:51:50;2.57;;;0.80;;
1366;SDS011;16877;48.810;9.282;2023-11-19T03:54:18;1.60;;;0.63;;
1366;SDS011;16877;48.810;9.282;2023-11-19T03:56:45;1.70;;;0.60;;
1366;SDS011;16877;48.810;9.282;2023-11-19T03:59:12;1.70;;;0.80;;
1366;SDS011;16877;48.810;9.282;2023-11-19T04:01:40;1.83;;;0.67;;
1366;SDS011;16877;48.810;9.282;2023-11-19T04:04:07;1.87;;;0.90;;
1366;SDS011;16877;48.810;9.282;2023-11-19T04:06:34;1.67;;;0.60;;
1366;SDS011;16877;48.810;9.282;2023-11-19T04:09:00;1.73;;;0.60;;
1366;SDS011;16877;48.810;9.282;2023-11-19T04:11:28;3.17;;;0.63;;
1366;SDS011;16877;48.810;9.282;2023-11-19T04:13:55;2.00;;;0.60;;
1366;SDS011;16877;48.810;9.282;2023-11-19T04:16:25;1.70;;;0.60;;
1366;SDS011;16877;48.810;9.282;2023-11-19T04:18:53;2.10;;;0.70;;
1366;SDS011;16877;48.810;9.282;2023-11-19T04:21:19;1.80;;;0.80;;
1366;SDS011;16877;48.810;9.282;2023-11-19T04:23:48;2.43;;;0.90;;
1366;SDS011;16877;48.810;9.282;2023-11-19T04:26:14;1.90;;;0.70;;
1366;SDS011;16877;48.810;9.282;2023-11-19T04:28:42;1.50;;;0.50;;
1366;SDS011;16877;48.810;9.282;2023-11-19T04:31:09;1.60;;;0.50;;
1366;SDS011;16877;48.810;9.282;2023-11-19T04:33:36;2.10;;;0.70;;
1366;SDS011;16877;48.810;9.282;2023-11-19T04:36:03;1.40;;;0.40;;
1366;SDS011;16877;48.810;9.282;2023-11-19T04:38:30;3.87;;;0.70;;
1366;SDS011;16877;48.810;9.282;2023-11-19T04:40:57;2.10;;;0.50;;
1366;SDS011;16877;48.810;9.282;2023-11-19T04:43:23;1.50;;;0.50;;
1366;SDS011;16877;48.810;9.282;2023-11-19T04:45:51;2.33;;;0.47;;
1366;SDS011;16877;48.810;9.282;2023-11-19T04:48:18;1.60;;;0.57;;
1366;SDS011;16877;48.810;9.282;2023-11-19T04:50:45;1.93;;;0.47;;
1366;SDS011;16877;48.810;9.282;2023-11-19T04:53:12;1.57;;;0.43;;
1366;SDS011;16877;48.810;9.282;2023-11-19T04:55:40;2.33;;;0.60;;
1366;SDS011;16877;48.810;9.282;2023-11-19T04:58:07;1.73;;;0.60;;
1366;SDS011;16877;48.810;9.282;2023-11-19T05:00:34;1.50;;;0.50;;
1366;SDS011;16877;48.810;9.282;2023-11-19T05:03:02;1.60;;;0.60;;
1366;SDS011;16877;48.810;9.282;2023-11-19T05:05:29;1.40;;;0.40;;
1366;SDS011;16877;48.810;9.282;2023-11-19T05:07:56;2.07;;;0.50;;
1366;SDS011;16877;48.810;9.282;2023-11-19T05:10:23;1.40;;;0.40;;
1366;SDS011;16877;48.810;9.282;2023-11-19T05:12:50;1.40;;;0.40;;
1366;SDS011;16877;48.810;9.282;2023-11-19T05:15:16;1.40;;;0.40;;
1366;SDS011;16877;48.810;9.282;2023-11-19T05:17:43;1.40;;;0.50;;
1366;SDS011;16877;48.810;9.282;2023-11-19T05:20:11;1.40;;;0.40;;
1366;SDS011;16877;48.810;9.282;2023-11-19T05:22:39;1.30;;;0.40;;
1366;SDS011;16877;48.810;9.282;2023-11-19T05:25:06;1.80;;;0.70;;
1366;SDS011;16877;48.810;9.282;2023-11-19T05:27:34;1.50;;;0.53;;
1366;SDS011;16877;48.810;9.282;2023-11-19T05:30:00;2.03;;;0.50;;
1366;SDS011;16877;48.810;9.282;2023-11-19T05:32:27;2.90;;;0.50;;
1366;SDS011;16877;48.810;9.282;2023-11-19T05:34:54;1.87;;;0.50;;
1366;SDS011;16877;48.810;9.282;2023-11-19T05:37:22;1.53;;;0.53;;
1366;SDS011;16877;48.810;9.282;2023-11-19T05:39:50;1.70;;;0.50;;
1366;SDS011;16877;48.810;9.282;2023-11-19T05:42:17;1.70;;;0.50;;
1366;SDS011;16877;48.810;9.282;2023-11-19T05:44:44;1.40;;;0.40;;
1366;SDS011;16877;48.810;9.282;2023-11-19T05:47:11;1.60;;;0.40;;
1366;SDS011;16877;48.810;9.282;2023-11-19T05:49:38;1.70;;;0.50;;
1366;SDS011;16877;48.810;9.282;2023-11-19T05:52:04;1.80;;;0.70;;
1366;SDS011;16877;48.810;9.282;2023-11-19T05:54:34;2.10;;;0.40;;
1366;SDS011;16877;48.810;9.282;2023-11-19T05:57:02;1.60;;;0.40;;
1366;SDS011;16877;48.810;9.282;2023-11-19T05:59:30;1.60;;;0.40;;
1366;SDS011;16877;48.810;9.282;2023-11-19T06:01:58;1.50;;;0.43;;
1366;SDS011;16877;48.810;9.282;2023-11-19T06:04:24;1.80;;;0.50;;
1366;SDS011;16877;48.810;9.282;2023-11-19T06:06:51;3.00;;;0.70;;
1366;SDS011;16877;48.810;9.282;2023-11-19T06:09:19;1.53;;;0.50;;
1366;SDS011;16877;48.810;9.282;2023-11-19T06:11:49;1.60;;;0.40;;
1366;SDS011;16877;48.810;9.282;2023-11-19T06:14:17;1.50;;;0.40;;
1366;SDS011;16877;48.810;9.282;2023-11-19T06:16:44;2.13;;;0.53;;
1366;SDS011;16877;48.810;9.282;2023-11-19T06:19:10;1.67;;;0.70;;
1366;SDS011;16877;48.810;9.282;2023-11-19T06:21:38;1.50;;;0.43;;
1366;SDS011;16877;48.810;9.282;2023-11-19T06:24:04;1.67;;;0.47;;
1366;SDS011;16877;48.810;9.282;2023-11-19T06:26:31;1.63;;;0.50;;
1366;SDS011;16877;48.810;9.282;2023-11-19T06:29:00;1.50;;;0.50;;
1366;SDS011;16877;48.810;9.282;2023-11-19T06:31:27;2.20;;;0.60;;
1366;SDS011;16877;48.810;9.282;2023-11-19T06:33:54;2.43;;;0.50;;
1366;SDS011;16877;48.810;9.282;2023-11-19T06:36:21;1.70;;;0.50;;
1366;SDS011;16877;48.810;9.282;2023-11-19T06:38:47;1.40;;;0.40;;
1366;SDS011;16877;48.810;9.282;2023-11-19T06:41:14;1.80;;;0.60;;
1366;SDS011;16877;48.810;9.282;2023-11-19T06:43:41;1.60;;;0.53;;
1366;SDS011;16877;48.810;9.282;2023-11-19T06:46:15;1.60;;;0.60;;
1366;SDS011;16877;48.810;9.282;2023-11-19T06:48:42;1.60;;;0.60;;
1366;SDS011;16877;48.810;9.282;2023-11-19T06:51:09;1.50;;;0.50;;
1366;SDS011;16877;48.810;9.282;2023-11-19T06:53:36;1.90;;;0.70;;
1366;SDS011;16877;48.810;9.282;2023-11-19T06:56:04;1.80;;;0.60;;
1366;SDS011;16877;48.810;9.282;2023-11-19T06:58:35;1.47;;;0.50;;
1366;SDS011;16877;48.810;9.282;2023-11-19T07:01:01;1.43;;;0.53;;
1366;SDS011;16877;48.810;9.282;2023-11-19T07:03:29;1.63;;;0.60;;
1366;SDS011;16877;48.810;9.282;2023-11-19T07:05:55;1.60;;;0.60;;
1366;SDS011;16877;48.810;9.282;2023-11-19T07:08:22;1.83;;;0.70;;
1366;SDS011;16877;48.810;9.282;2023-11-19T07:10:49;1.73;;;0.50;;
1366;SDS011;16877;48.810;9.282;2023-11-19T07:13:15;1.97;;;0.60;;
1366;SDS011;16877;48.810;9.282;2023-11-19T07:15:42;1.60;;;0.53;;
1366;SDS011;16877;48.810;9.282;2023-11-19T07:18:09;1.53;;;0.50;;
1366;SDS011;16877;48.810;9.282;2023-11-19T07:20:38;1.70;;;0.70;;
1366;SDS011;16877;48.810;9.282;2023-11-19T07:23:05;2.57;;;0.83;;
1366;SDS011;16877;48.810;9.282;2023-11-19T07:25:31;1.93;;;0.70;;
1366;SDS011;16877;48.810;9.282;2023-11-19T07:28:00;2.70;;;0.90;;
1366;SDS011;16877;48.810;9.282;2023-11-19T07:30:29;2.03;;;1.00;;
1366;SDS011;16877;48.810;9.282;2023-11-19T07:32:56;1.70;;;0.50;;
1366;SDS011;16877;48.810;9.282;2023-11-19T07:35:23;1.83;;;0.73;;
1366;SDS011;16877;48.810;9.282;2023-11-19T07:37:51;1.50;;;0.60;;
1366;SDS011;16877;48.810;9.282;2023-11-19T07:40:18;1.70;;;0.60;;
1366;SDS011;16877;48.810;9.282;2023-11-19T07:42:45;1.90;;;0.90;;
1366;SDS011;16877;48.810;9.282;2023-11-19T07:45:11;5.00;;;0.97;;
1366;SDS011;16877;48.810;9.282;2023-11-19T07:47:38;1.97;;;0.93;;
1366;SDS011;16877;48.810;9.282;2023-11-19T07:50:05;2.00;;;0.90;;
1366;SDS011;16877;48.810;9.282;2023-11-19T07:52:32;3.00;;;0.67;;
1366;SDS011;16877;48.810;9.282;2023-11-19T07:55:00;2.50;;;0.97;;
1366;SDS011;16877;48.810;9.282;2023-11-19T07:57:27;2.67;;;1.20;;
1366;SDS011;16877;48.810;9.282;2023-11-19T07:59:55;2.37;;;1.30;;
1366;SDS011;16877;48.810;9.282;2023-11-19T08:02:22;2.20;;;1.00;;
1366;SDS011;16877;48.810;9.282;2023-11-19T08:04:49;2.50;;;1.20;;
1366;SDS011;16877;48.810;9.282;2023-11-19T08:07:17;2.40;;;1.10;;
1366;SDS011;16877;48.810;9.282;2023-11-19T08:09:44;2.27;;;1.17;;
1366;SDS011;16877;48.810;9.282;2023-11-19T08:12:12;1.77;;;0.80;;
1366;SDS011;16877;48.810;9.282;2023-11-19T08:14:39;1.80;;;0.83;;
1366;SDS011;16877;48.810;9.282;2023-11-19T08:17:06;2.20;;;0.90;;
1366;SDS011;16877;48.810;9.282;2023-11-19T08:19:33;2.13;;;0.97;;
1366;SDS011;16877;48.810;9.282;2023-11-19T08:21:59;2.00;;;0.97;;
1366;SDS011;16877;48.810;9.282;2023-11-19T08:24:27;2.23;;;1.10;;
1366;SDS011;16877;48.810;9.282;2023-11-19T08:26:53;1.93;;;1.00;;
1366;SDS011;16877;48.810;9.282;2023-11-19T08:29:22;1.80;;;0.97;;
1366;SDS011;16877;48.810;9.282;2023-11-19T08:31:48;2.10;;;0.90;;
1366;SDS011;16877;48.810;9.282;2023-11-19T08:34:15;2.40;;;0.87;;
1366;SDS011;16877;48.810;9.282;2023-11-19T08:36:41;2.40;;;1.10;;
1366;SDS011;16877;48.810;9.282;2023-11-19T08:39:08;2.00;;;0.90;;
1366;SDS011;16877;48.810;9.282;2023-11-19T08:41:35;2.07;;;0.87;;
1366;SDS011;16877;48.810;9.282;2023-11-19T08:44:03;2.07;;;0.83;;
1366;SDS011;16877;48.810;9.282;2023-11-19T08:46:32;1.90;;;0.70;;
1366;SDS011;16877;48.810;9.282;2023-11-19T08:48:58;2.03;;;1.00;;
1366;SDS011;16877;48.810;9.282;2023-11-19T08:51:25;1.70;;;0.80;;
1366;SDS011;16877;48.810;9.282;2023-11-19T08:53:53;1.50;;;0.60;;
1366;SDS011;16877;48.810;9.282;2023-11-19T08:56:20;3.53;;;0.90;;
1366;SDS011;16877;48.810;9.282;2023-11-19T08:58:47;1.60;;;0.60;;
1366;SDS011;16877;48.810;9.282;2023-11-19T09:01:14;1.60;;;0.80;;
1366;SDS011;16877;48.810;9.282;2023-11-19T09:03:42;2.23;;;0.90;;
1366;SDS011;16877;48.810;9.282;2023-11-19T09:06:09;2.60;;;1.10;;
1366;SDS011;16877;48.810;9.282;2023-11-19T09:08:35;1.97;;;0.60;;
1366;SDS011;16877;48.810;9.282;2023-11-19T09:11:06;1.83;;;0.80;;
1366;SDS011;16877;48.810;9.282;2023-11-19T09:13:33;1.70;;;0.60;;
1366;SDS011;16877;48.810;9.282;2023-11-19T09:16:00;2.10;;;0.80;;
1366;SDS011;16877;48.810;9.282;2023-11-19T09:18:28;2.13;;;0.80;;
1366;SDS011;16877;48.810;9.282;2023-11-19T09:20:56;1.70;;;0.60;;
1366;SDS011;16877;48.810;9.282;2023-11-19T09:23:23;2.20;;;1.07;;
1366;SDS011;16877;48.810;9.282;2023-11-19T09:25:50;1.70;;;0.70;;
1366;SDS011;16877;48.810;9.282;2023-11-19T09:28:16;2.00;;;0.60;;
1366;SDS011;16877;48.810;9.282;2023-11-19T09:30:43;1.90;;;0.70;;
1366;SDS011;16877;48.810;9.282;2023-11-19T09:33:10;1.70;;;0.80;;
1366;SDS011;16877;48.810;9.282;2023-11-19T09:35:36;2.37;;;1.40;;
1366;SDS011;16877;48.810;9.282;2023-11-19T09:38:04;2.00;;;0.90;;
1366;SDS011;16877;48.810;9.282;2023-11-19T09:40:31;4.20;;;1.10;;
1366;SDS011;16877;48.810;9.282;2023-11-19T09:42:58;2.20;;;0.90;;
1366;SDS011;16877;48.810;9.282;2023-11-19T09:45:26;2.07;;;0.87;;
1366;SDS011;16877;48.810;9.282;2023-11-19T09:47:54;2.30;;;0.80;;
1366;SDS011;16877;48.810;9.282;2023-11-19T09:50:23;3.10;;;1.10;;
1366;SDS011;16877;48.810;9.282;2023-11-19T09:52:50;2.20;;;0.90;;
1366;SDS011;16877;48.810;9.282;2023-11-19T09:55:18;2.03;;;0.70;;
1366;SDS011;16877;48.810;9.282;2023-11-19T09:57:45;1.90;;;0.80;;
1366;SDS011;16877;48.810;9.282;2023-11-19T10:00:15;3.87;;;1.20;;
1366;SDS011;16877;48.810;9.282;2023-11-19T10:02:44;2.13;;;0.80;;
1366;SDS011;16877;48.810;9.282;2023-11-19T10:05:11;2.30;;;1.00;;
1366;SDS011;16877;48.810;9.282;2023-11-19T10:07:39;3.10;;;0.87;;
1366;SDS011;16877;48.810;9.282;2023-11-19T10:10:06;1.87;;;0.77;;
1366;SDS011;16877;48.810;9.282;2023-11-19T10:12:37;1.70;;;0.70;;
1366;SDS011;16877;48.810;9.282;2023-11-19T10:15:05;3.40;;;1.20;;
1366;SDS011;16877;48.810;9.282;2023-11-19T10:17:35;1.90;;;0.80;;
1366;SDS011;16877;48.810;9.282;2023-11-19T10:20:02;2.00;;;1.00;;
1366;SDS011;16877;48.810;9.282;2023-11-19T10:22:30;2.40;;;0.80;;
1366;SDS011;16877;48.810;9.282;2023-11-19T10:24:56;1.97;;;0.83;;
1366;SDS011;16877;48.810;9.282;2023-11-19T10:27:23;1.90;;;0.80;;
1366;SDS011;16877;48.810;9.282;2023-11-19T10:29:52;2.10;;;0.80;;
1366;SDS011;16877;48.810;9.282;2023-11-19T10:32:18;2.03;;;0.80;;
1366;SDS011;16877;48.810;9.282;2023-11-19T10:34:45;5.07;;;1.20;;
1366;SDS011;16877;48.810;9.282;2023-11-19T10:37:26;3.17;;;1.50;;
1366;SDS011;16877;48.810;9.282;2023-11-19T10:39:54;5.37;;;1.73;;
1366;SDS011;16877;48.810;9.282;2023-11-19T10:42:21;6.73;;;1.80;;
1366;SDS011;16877;48.810;9.282;2023-11-19T10:44:48;3.57;;;1.70;;
1366;SDS011;16877;48.810;9.282;2023-11-19T10:47:16;2.73;;;1.33;;
1366;SDS011;16877;48.810;9.282;2023-11-19T10:49:45;5.30;;;2.20;;
1366;SDS011;16877;48.810;9.282;2023-11-19T10:52:12;6.13;;;2.00;;
1366;SDS011;16877;48.810;9.282;2023-11-19T10:54:44;6.73;;;2.00;;
1366;SDS011;16877;48.810;9.282;2023-11-19T10:57:13;3.73;;;1.50;;
1366;SDS011;16877;48.810;9.282;2023-11-19T10:59:45;4.03;;;1.30;;
1366;SDS011;16877;48.810;9.282;2023-11-19T11:02:14;3.57;;;1.50;;
1366;SDS011;16877;48.810;9.282;2023-11-19T11:04:48;6.43;;;1.60;;
1366;SDS011;16877;48.810;9.282;2023-11-19T11:07:16;2.70;;;1.40;;
1366;SDS011;16877;48.810;9.282;2023-11-19T11:09:50;3.47;;;1.60;;
1366;SDS011;16877;48.810;9.282;2023-11-19T11:12:19;2.67;;;1.17;;
1366;SDS011;16877;48.810;9.282;2023-11-19T11:14:48;3.73;;;1.13;;
1366;SDS011;16877;48.810;9.282;2023-11-19T11:17:16;2.90;;;1.00;;
1366;SDS011;16877;48.810;9.282;2023-11-19T11:19:45;4.20;;;1.07;;
1366;SDS011;16877;48.810;9.282;2023-11-19T11:22:12;2.10;;;1.00;;
1366;SDS011;16877;48.810;9.282;2023-11-19T11:27:48;8.67;;;1.17;;
1366;SDS011;16877;48.810;9.282;2023-11-19T11:30:35;2.43;;;0.87;;
1366;SDS011;16877;48.810;9.282;2023-11-19T11:33:15;1.80;;;0.70;;
1366;SDS011;16877;48.810;9.282;2023-11-19T11:35:55;2.57;;;0.80;;
1366;SDS011;16877;48.810;9.282;2023-11-19T11:38:30;3.03;;;0.87;;
1366;SDS011;16877;48.810;9.282;2023-11-19T11:41:16;1.90;;;0.77;;
1366;SDS011;16877;48.810;9.282;2023-11-19T11:43:45;4.67;;;1.10;;
1366;SDS011;16877;48.810;9.282;2023-11-19T11:49:16;3.17;;;1.20;;
1366;SDS011;16877;48.810;9.282;2023-11-19T11:51:59;2.97;;;1.00;;
1366;SDS011;16877;48.810;9.282;2023-11-19T11:54:27;2.70;;;0.73;;
1366;SDS011;16877;48.810;9.282;2023-11-19T11:57:02;3.10;;;1.13;;
1366;SDS011;16877;48.810;9.282;2023-11-19T11:59:37;2.23;;;0.77;;
1366;SDS011;16877;48.810;9.282;2023-11-19T12:02:08;2.77;;;0.90;;
1366;SDS011;16877;48.810;9.282;2023-11-19T12:04:36;2.13;;;0.80;;
1366;SDS011;16877;48.810;9.282;2023-11-19T12:07:05;2.20;;;0.70;;
1366;SDS011;16877;48.810;9.282;2023-11-19T12:09:33;3.20;;;0.87;;
1366;SDS011;16877;48.810;9.282;2023-11-19T12:12:07;4.70;;;1.10;;
1366;SDS011;16877;48.810;9.282;2023-11-19T12:15:00;2.00;;;0.90;;
1366;SDS011;16877;48.810;9.282;2023-11-19T12:17:36;3.70;;;1.30;;
1366;SDS011;16877;48.810;9.282;2023-11-19T12:20:09;3.10;;;0.70;;
1366;SDS011;16877;48.810;9.282;2023-11-19T12:22:38;3.77;;;0.93;;
1366;SDS011;16877;48.810;9.282;2023-11-19T12:25:06;2.90;;;0.90;;
1366;SDS011;16877;48.810;9.282;2023-11-19T12:27:33;1.83;;;0.90;;
1366;SDS011;16877;48.810;9.282;2023-11-19T12:30:00;2.27;;;0.80;;
1366;SDS011;16877;48.810;9.282;2023-11-19T12:32:36;2.53;;;0.90;;
1366;SDS011;16877;48.810;9.282;2023-11-19T12:35:04;2.20;;;0.80;;
1366;SDS011;16877;48.810;9.282;2023-11-19T12:37:32;2.43;;;0.80;;
1366;SDS011;16877;48.810;9.282;2023-11-19T12:40:09;2.30;;;1.00;;
1366;SDS011;16877;48.810;9.282;2023-11-19T12:42:43;4.17;;;1.47;;
1366;SDS011;16877;48.810;9.282;2023-11-19T12:45:10;4.87;;;2.13;;
1366;SDS011;16877;48.810;9.282;2023-11-19T12:47:38;3.00;;;1.30;;
1366;SDS011;16877;48.810;9.282;2023-11-19T12:50:06;2.10;;;0.90;;
1366;SDS011;16877;48.810;9.282;2023-11-19T12:52:33;4.30;;;1.33;;
1366;SDS011;16877;48.810;9.282;2023-11-19T12:55:00;2.40;;;1.23;;
1366;SDS011;16877;48.810;9.282;2023-11-19T12:57:38;3.10;;;1.07;;
1366;SDS011;16877;48.810;9.282;2023-11-19T13:00:06;2.27;;;0.97;;
1366;SDS011;16877;48.810;9.282;2023-11-19T13:02:44;2.47;;;0.80;;
1366;SDS011;16877;48.810;9.282;2023-11-19T13:05:25;3.20;;;1.33;;
1366;SDS011;16877;48.810;9.282;2023-11-19T13:08:00;3.10;;;1.10;;
1366;SDS011;16877;48.810;9.282;2023-11-19T13:10:27;3.47;;;0.93;;
1366;SDS011;16877;48.810;9.282;2023-11-19T13:13:06;2.50;;;0.80;;
1366;SDS011;16877;48.810;9.282;2023-11-19T13:15:33;3.23;;;0.83;;
1366;SDS011;16877;48.810;9.282;2023-11-19T13:18:01;2.10;;;0.90;;
1366;SDS011;16877;48.810;9.282;2023-11-19T13:20:29;2.60;;;1.00;;
1366;SDS011;16877;48.810;9.282;2023-11-19T13:22:57;3.13;;;1.30;;
1366;SDS011;16877;48.810;9.282;2023-11-19T13:25:24;6.83;;;1.30;;
1366;SDS011;16877;48.810;9.282;2023-11-19T13:27:51;3.30;;;1.50;;
1366;SDS011;16877;48.810;9.282;2023-11-19T13:30:20;7.30;;;1.83;;
1366;SDS011;16877;48.810;9.282;2023-11-19T13:32:47;4.33;;;1.43;;
1366;SDS011;16877;48.810;9.282;2023-11-19T13:35:14;6.80;;;1.60;;
1366;SDS011;16877;48.810;9.282;2023-11-19T13:37:42;4.23;;;1.40;;
1366;SDS011;16877;48.810;9.282;2023-11-19T13:40:09;2.90;;;1.20;;
1366;SDS011;16877;48.810;9.282;2023-11-19T13:42:39;2.50;;;1.10;;
1366;SDS011;16877;48.810;9.282;2023-11-19T13:45:07;3.73;;;1.70;;
1366;SDS011;16877;48.810;9.282;2023-11-19T13:47:37;2.13;;;1.00;;
1366;SDS011;16877;48.810;9.282;2023-11-19T13:50:06;4.33;;;1.50;;
1366;SDS011;16877;48.810;9.282;2023-11-19T13:52:34;2.20;;;1.23;;
1366;SDS011;16877;48.810;9.282;2023-11-19T13:55:02;2.07;;;0.80;;
1366;SDS011;16877;48.810;9.282;2023-11-19T13:57:29;3.97;;;1.67;;
1366;SDS011;16877;48.810;9.282;2023-11-19T13:59:57;3.33;;;1.30;;
1366;SDS011;16877;48.810;9.282;2023-11-19T14:02:24;2.33;;;1.00;;
1366;SDS011;16877;48.810;9.282;2023-11-19T14:04:52;3.77;;;1.30;;
1366;SDS011;16877;48.810;9.282;2023-11-19T14:07:18;2.50;;;0.70;;
1366;SDS011;16877;48.810;9.282;2023-11-19T14:09:45;3.20;;;1.00;;
1366;SDS011;16877;48.810;9.282;2023-11-19T14:12:12;2.40;;;0.90;;
1366;SDS011;16877;48.810;9.282;2023-11-19T14:14:39;2.77;;;0.70;;
1366;SDS011;16877;48.810;9.282;2023-11-19T14:17:07;2.20;;;0.80;;
1366;SDS011;16877;48.810;9.282;2023-11-19T14:19:34;2.17;;;1.00;;
1366;SDS011;16877;48.810;9.282;2023-11-19T14:22:02;3.70;;;1.03;;
1366;SDS011;16877;48.810;9.282;2023-11-19T14:24:29;2.70;;;1.33;;
1366;SDS011;16877;48.810;9.282;2023-11-19T14:26:55;4.17;;;1.30;;
1366;SDS011;16877;48.810;9.282;2023-11-19T14:29:23;1.80;;;0.63;;
1366;SDS011;16877;48.810;9.282;2023-11-19T14:31:51;2.00;;;0.60;;
1366;SDS011;16877;48.810;9.282;2023-11-19T14:34:19;2.53;;;0.70;;
1366;SDS011;16877;48.810;9.282;2023-11-19T14:36:46;3.03;;;1.00;;
1366;SDS011;16877;48.810;9.282;2023-11-19T14:39:15;2.57;;;0.80;;
1366;SDS011;16877;48.810;9.282;2023-11-19T14:41:42;3.37;;;1.07;;
1366;SDS011;16877;48.810;9.282;2023-11-19T14:44:09;3.23;;;1.07;;
1366;SDS011;16877;48.810;9.282;2023-11-19T14:46:36;2.93;;;0.83;;
1366;SDS011;16877;48.810;9.282;2023-11-19T14:49:03;2.10;;;0.73;;
1366;SDS011;16877;48.810;9.282;2023-11-19T14:51:30;2.80;;;0.90;;
1366;SDS011;16877;48.810;9.282;2023-11-19T14:53:57;2.70;;;1.17;;
1366;SDS011;16877;48.810;9.282;2023-11-19T14:56:26;1.77;;;0.70;;
1366;SDS011;16877;48.810;9.282;2023-11-19T14:58:52;2.00;;;0.80;;
1366;SDS011;16877;48.810;9.282;2023-11-19T15:01:19;3.10;;;1.10;;
1366;SDS011;16877;48.810;9.282;2023-11-19T15:03:46;2.40;;;0.83;;
1366;SDS011;16877;48.810;9.282;2023-11-19T15:06:13;2.60;;;1.00;;
1366;SDS011;16877;48.810;9.282;2023-11-19T15:08:40;3.77;;;1.30;;
1366;SDS011;16877;48.810;9.282;2023-11-19T15:11:10;3.00;;;0.90;;
1366;SDS011;16877;48.810;9.282;2023-11-19T15:13:40;2.53;;;1.17;;